createdAt,value
2023-05-09T00:00:47.735Z,20.33
2023-05-09T00:03:14.582Z,20.73
2023-05-09T00:05:41.790Z,21.67
2023-05-09T00:08:08.672Z,21.43
2023-05-09T00:10:35.705Z,20.97
2023-05-09T00:13:02.542Z,19.53
2023-05-09T00:15:29.383Z,21.63
2023-05-09T00:17:56.170Z,21.13
2023-05-09T00:20:23.034Z,21.30
2023-05-09T00:22:49.781Z,20.17
2023-05-09T00:25:16.609Z,19.47
2023-05-09T00:27:43.507Z,24.07
2023-05-09T00:30:10.879Z,20.83
2023-05-09T00:32:37.641Z,23.17
2023-05-09T00:35:05.606Z,23.83
2023-05-09T00:37:32.331Z,22.20
2023-05-09T00:39:59.258Z,23.37
2023-05-09T00:42:26.020Z,22.33
2023-05-09T00:44:52.715Z,21.00
2023-05-09T00:47:20.309Z,22.17
2023-05-09T00:49:47.034Z,20.03
2023-05-09T00:52:13.715Z,20.77
2023-05-09T00:54:40.918Z,22.73
2023-05-09T00:57:07.846Z,22.57
2023-05-09T00:59:35.321Z,20.50
2023-05-09T01:02:02.049Z,22.67
2023-05-09T01:04:28.937Z,20.60
2023-05-09T01:07:01.938Z,22.47
2023-05-09T01:09:55.651Z,22.90
2023-05-09T01:12:34.822Z,21.90
2023-05-09T01:15:16.731Z,24.23
2023-05-09T01:17:58.535Z,22.77
2023-05-09T01:20:35.612Z,21.77
2023-05-09T01:23:05.033Z,21.53
2023-05-09T01:26:04.210Z,21.80
2023-05-09T01:28:52.852Z,20.53
2023-05-09T01:31:19.759Z,22.20
2023-05-09T01:33:49.266Z,22.43
2023-05-09T01:36:17.426Z,22.37
2023-05-09T01:38:48.330Z,21.80
2023-05-09T01:41:16.109Z,20.93
2023-05-09T01:43:43.180Z,21.00
2023-05-09T01:46:10.000Z,18.80
2023-05-09T01:48:37.384Z,22.40
2023-05-09T01:51:05.582Z,23.97
2023-05-09T01:53:32.346Z,21.07
2023-05-09T01:55:59.342Z,21.00
2023-05-09T01:58:26.191Z,21.20
2023-05-09T02:00:53.110Z,20.30
2023-05-09T02:03:20.056Z,20.20
2023-05-09T02:05:46.763Z,21.77
2023-05-09T02:08:14.463Z,23.87
2023-05-09T02:10:41.168Z,19.63
2023-05-09T02:13:07.888Z,20.63
2023-05-09T02:15:34.598Z,21.30
2023-05-09T02:18:01.726Z,21.47
2023-05-09T02:20:28.502Z,18.87
2023-05-09T02:22:55.417Z,20.37
2023-05-09T02:25:22.127Z,19.07
2023-05-09T02:27:48.851Z,23.37
2023-05-09T02:30:18.711Z,23.03
2023-05-09T02:32:46.031Z,24.57
2023-05-09T02:35:13.130Z,23.27
2023-05-09T02:37:39.975Z,22.97
2023-05-09T02:40:09.141Z,21.37
2023-05-09T02:42:36.197Z,22.63
2023-05-09T02:45:02.877Z,21.60
2023-05-09T02:47:29.568Z,22.50
2023-05-09T02:49:56.286Z,25.87
2023-05-09T02:52:23.382Z,22.67
2023-05-09T02:54:50.031Z,22.50
2023-05-09T02:57:16.819Z,22.87
2023-05-09T02:59:43.480Z,22.60
2023-05-09T03:02:10.171Z,22.43
2023-05-09T03:04:37.561Z,25.93
2023-05-09T03:07:04.321Z,23.07
2023-05-09T03:09:31.013Z,24.30
2023-05-09T03:11:57.821Z,26.77
2023-05-09T03:14:24.568Z,23.27
2023-05-09T03:16:51.613Z,27.00
2023-05-09T03:19:18.792Z,21.67
2023-05-09T03:21:45.623Z,24.50
2023-05-09T03:24:12.355Z,25.53
2023-05-09T03:26:39.279Z,24.23
2023-05-09T03:29:06.032Z,23.20
2023-05-09T03:31:32.932Z,22.40
2023-05-09T03:33:59.899Z,25.50
2023-05-09T03:36:27.517Z,28.23
2023-05-09T03:38:54.211Z,23.97
2023-05-09T03:41:21.107Z,24.17
2023-05-09T03:43:47.763Z,25.43
2023-05-09T03:46:14.543Z,23.93
2023-05-09T03:48:41.246Z,23.80
2023-05-09T03:51:07.918Z,23.17
2023-05-09T03:53:34.649Z,23.60
2023-05-09T03:56:01.389Z,25.43
2023-05-09T03:58:28.202Z,24.90
2023-05-09T04:00:55.062Z,25.03
2023-05-09T04:03:21.794Z,24.90
2023-05-09T04:05:48.645Z,24.80
2023-05-09T04:08:15.396Z,23.53
2023-05-09T04:10:42.136Z,24.60
2023-05-09T04:13:09.013Z,26.97
2023-05-09T04:15:35.902Z,24.40
2023-05-09T04:18:02.855Z,23.70
2023-05-09T04:20:29.802Z,24.43
2023-05-09T04:22:56.639Z,22.43
2023-05-09T04:25:23.957Z,22.53
2023-05-09T04:27:50.741Z,22.07
2023-05-09T04:30:17.868Z,22.87
2023-05-09T04:32:46.113Z,22.13
2023-05-09T04:35:14.083Z,21.13
2023-05-09T04:37:41.850Z,20.13
2023-05-09T04:40:09.428Z,19.53
2023-05-09T04:42:36.280Z,19.30
2023-05-09T04:45:03.268Z,18.30
2023-05-09T04:47:30.018Z,18.43
2023-05-09T04:49:56.736Z,18.70
2023-05-09T04:52:25.211Z,17.93
2023-05-09T04:54:52.079Z,18.73
2023-05-09T04:57:19.229Z,19.33
2023-05-09T04:59:46.750Z,18.37
2023-05-09T05:02:13.502Z,17.30
2023-05-09T05:04:40.290Z,17.40
2023-05-09T05:07:07.533Z,15.93
2023-05-09T05:09:34.881Z,15.77
2023-05-09T05:12:03.691Z,17.20
2023-05-09T05:14:32.227Z,16.00
2023-05-09T05:16:59.070Z,16.87
2023-05-09T05:19:25.862Z,17.43
2023-05-09T05:21:52.568Z,16.73
2023-05-09T05:24:19.283Z,16.83
2023-05-09T05:26:49.042Z,15.77
2023-05-09T05:29:15.748Z,15.20
2023-05-09T05:31:42.903Z,16.40
2023-05-09T05:34:09.638Z,16.27
2023-05-09T05:36:36.296Z,14.73
2023-05-09T05:39:03.539Z,15.33
2023-05-09T05:41:30.258Z,14.23
2023-05-09T05:43:56.934Z,14.53
2023-05-09T05:46:23.753Z,14.67
2023-05-09T05:48:50.560Z,14.43
2023-05-09T05:51:17.372Z,13.73
2023-05-09T05:53:44.390Z,15.10
2023-05-09T05:56:11.155Z,14.87
2023-05-09T05:58:39.528Z,13.20
2023-05-09T06:01:06.487Z,14.37
2023-05-09T06:03:33.245Z,12.63
2023-05-09T06:06:00.101Z,13.63
2023-05-09T06:08:27.239Z,13.77
2023-05-09T06:10:54.143Z,12.37
2023-05-09T06:13:20.875Z,13.47
2023-05-09T06:15:47.683Z,11.90
2023-05-09T06:18:14.428Z,13.13
2023-05-09T06:20:41.121Z,12.47
2023-05-09T06:23:07.818Z,13.03
2023-05-09T06:25:34.523Z,12.13
2023-05-09T06:28:01.216Z,12.83
2023-05-09T06:30:27.935Z,13.77
2023-05-09T06:32:55.319Z,13.10
2023-05-09T06:35:22.318Z,11.77
2023-05-09T06:37:49.538Z,12.03
2023-05-09T06:40:16.771Z,11.50
2023-05-09T06:42:43.581Z,11.53
2023-05-09T06:45:10.862Z,12.07
2023-05-09T06:47:37.606Z,11.67
2023-05-09T06:50:04.493Z,11.30
2023-05-09T06:52:31.219Z,11.60
2023-05-09T06:54:57.883Z,12.40
2023-05-09T06:57:24.619Z,12.57
2023-05-09T06:59:51.315Z,12.30
2023-05-09T07:02:18.012Z,12.73
2023-05-09T07:04:44.701Z,12.27
2023-05-09T07:07:11.413Z,12.43
2023-05-09T07:09:38.154Z,12.10
2023-05-09T07:12:05.368Z,12.03
2023-05-09T07:14:32.027Z,11.27
2023-05-09T07:17:13.692Z,11.77
2023-05-09T07:19:45.333Z,12.27
2023-05-09T07:22:13.510Z,12.37
2023-05-09T07:24:40.306Z,12.90
2023-05-09T07:27:07.056Z,11.17
2023-05-09T07:29:33.866Z,12.73
2023-05-09T07:32:00.689Z,11.00
2023-05-09T07:34:27.524Z,11.17
2023-05-09T07:36:54.246Z,12.17
2023-05-09T07:39:20.971Z,12.83
2023-05-09T07:41:48.839Z,15.00
2023-05-09T07:44:15.947Z,11.60
2023-05-09T07:46:42.877Z,12.47
2023-05-09T07:49:09.594Z,12.07
2023-05-09T07:51:36.376Z,14.77
2023-05-09T07:54:03.100Z,12.50
2023-05-09T07:56:29.772Z,12.03
2023-05-09T08:04:21.751Z,13.40
2023-05-09T08:06:49.360Z,13.33
2023-05-09T08:09:16.325Z,12.50
2023-05-09T08:11:43.300Z,13.17
2023-05-09T08:14:10.712Z,14.10
2023-05-09T08:16:37.637Z,13.40
2023-05-09T08:19:05.164Z,13.87
2023-05-09T08:21:33.283Z,12.93
2023-05-09T08:24:01.848Z,13.23
2023-05-09T08:26:32.910Z,13.30
2023-05-09T08:28:59.717Z,13.87
2023-05-09T08:31:27.206Z,12.80
2023-05-09T08:33:54.077Z,14.23
2023-05-09T08:36:21.225Z,13.43
2023-05-09T08:38:48.274Z,13.87
2023-05-09T08:41:15.512Z,14.37
2023-05-09T08:43:43.076Z,15.27
2023-05-09T08:46:11.228Z,12.63
2023-05-09T08:48:38.453Z,12.73
2023-05-09T08:51:06.459Z,12.97
2023-05-09T08:53:33.826Z,13.80
2023-05-09T08:56:03.822Z,13.63
2023-05-09T08:58:31.440Z,12.57
2023-05-09T09:00:58.354Z,12.63
2023-05-09T09:03:26.429Z,11.80
2023-05-09T09:05:54.755Z,13.20
2023-05-09T09:08:21.694Z,11.37
2023-05-09T09:10:48.663Z,10.97
2023-05-09T09:13:16.487Z,13.30
2023-05-09T09:15:44.290Z,12.00
2023-05-09T09:18:21.047Z,12.30
2023-05-09T09:20:54.820Z,12.40
2023-05-09T09:23:21.748Z,11.40
2023-05-09T09:25:49.066Z,14.70
2023-05-09T09:28:16.270Z,14.13
2023-05-09T09:30:47.899Z,15.37
2023-05-09T09:33:25.476Z,14.50
2023-05-09T09:35:53.654Z,13.33
2023-05-09T09:38:21.415Z,14.27
2023-05-09T09:40:58.422Z,13.37
2023-05-09T09:43:29.609Z,13.80
2023-05-09T09:45:57.837Z,13.17
2023-05-09T09:48:34.941Z,13.77
2023-05-09T09:51:21.174Z,13.30
2023-05-09T09:53:48.140Z,12.03
2023-05-09T09:56:15.312Z,12.83
2023-05-09T09:58:42.191Z,14.77
2023-05-09T10:01:10.736Z,13.83
2023-05-09T10:03:45.169Z,13.47
2023-05-09T10:06:16.009Z,13.40
2023-05-09T10:08:44.240Z,15.50
2023-05-09T10:11:11.520Z,16.27
2023-05-09T10:13:38.792Z,16.47
2023-05-09T10:16:06.082Z,14.97
2023-05-09T10:18:33.878Z,13.40
2023-05-09T10:21:03.408Z,13.70
2023-05-09T10:23:31.357Z,12.90
2023-05-09T10:26:16.523Z,11.90
2023-05-09T10:28:43.340Z,13.73
2023-05-09T10:31:15.489Z,14.47
2023-05-09T10:33:49.045Z,13.63
2023-05-09T10:36:20.664Z,14.70
2023-05-09T10:38:48.716Z,13.67
2023-05-09T10:41:19.450Z,12.10
2023-05-09T10:43:46.853Z,12.13
2023-05-09T10:46:14.203Z,14.23
2023-05-09T10:48:41.756Z,10.90
2023-05-09T10:51:09.091Z,12.50
2023-05-09T10:53:49.923Z,16.13
2023-05-09T10:56:43.446Z,14.13
2023-05-09T10:59:33.348Z,11.50
2023-05-09T11:02:02.914Z,13.93
2023-05-09T11:04:30.805Z,13.93
2023-05-09T11:06:58.078Z,11.37
2023-05-09T11:09:35.854Z,11.70
2023-05-09T11:12:05.814Z,11.30
2023-05-09T11:14:45.998Z,14.40
2023-05-09T11:17:14.221Z,12.83
2023-05-09T11:19:47.660Z,11.73
2023-05-09T11:22:15.051Z,12.23
2023-05-09T11:24:46.374Z,9.67
2023-05-09T11:27:26.084Z,10.27
2023-05-09T11:29:59.666Z,13.10
2023-05-09T11:32:33.010Z,12.43
2023-05-09T11:35:12.839Z,12.83
2023-05-09T11:37:47.058Z,11.60
2023-05-09T11:40:15.101Z,11.67
2023-05-09T11:42:45.147Z,10.07
2023-05-09T11:45:13.530Z,11.50
2023-05-09T11:47:41.356Z,11.27
2023-05-09T11:50:10.026Z,10.50
2023-05-09T11:52:38.172Z,11.90
2023-05-09T11:55:12.805Z,11.37
2023-05-09T11:57:44.460Z,11.77
2023-05-09T12:00:11.879Z,11.43
2023-05-09T12:02:39.469Z,12.17
2023-05-09T12:05:09.572Z,12.17
2023-05-09T12:07:37.874Z,12.37
2023-05-09T12:10:09.117Z,11.27
2023-05-09T12:12:36.803Z,13.10
2023-05-09T12:15:06.773Z,10.23
2023-05-09T12:17:34.428Z,10.93
2023-05-09T12:20:04.705Z,11.43
2023-05-09T12:22:32.782Z,9.87
2023-05-09T12:25:07.501Z,10.13
2023-05-09T12:27:38.446Z,11.70
2023-05-09T12:30:10.564Z,9.87
2023-05-09T12:32:39.693Z,10.57
2023-05-09T12:35:10.885Z,10.83
2023-05-09T12:37:39.146Z,9.70
2023-05-09T12:40:13.248Z,10.23
2023-05-09T12:42:40.927Z,8.70
2023-05-09T12:45:12.222Z,9.27
2023-05-09T12:47:42.109Z,9.40
2023-05-09T12:50:11.979Z,9.53
2023-05-09T12:52:50.538Z,10.17
2023-05-09T12:55:26.376Z,10.23
2023-05-09T12:58:01.904Z,10.70
2023-05-09T13:00:29.779Z,9.30
2023-05-09T13:02:57.598Z,9.47
2023-05-09T13:05:25.371Z,9.07
2023-05-09T13:07:53.183Z,10.40
2023-05-09T13:10:24.131Z,11.87
2023-05-09T13:12:51.900Z,11.03
2023-05-09T13:15:22.818Z,9.47
2023-05-09T13:17:51.056Z,10.30
2023-05-09T13:20:19.116Z,10.93
2023-05-09T13:22:47.048Z,10.47
2023-05-09T13:25:14.494Z,11.97
2023-05-09T13:27:42.137Z,11.03
2023-05-09T13:30:09.834Z,10.27
2023-05-09T13:32:37.520Z,9.20
2023-05-09T13:35:07.894Z,8.13
2023-05-09T13:37:36.025Z,7.90
2023-05-09T13:40:04.456Z,8.63
2023-05-09T13:42:32.251Z,10.40
2023-05-09T13:44:59.804Z,9.00
2023-05-09T13:47:27.729Z,9.27
2023-05-09T13:49:55.425Z,10.73
2023-05-09T13:52:23.554Z,9.10
2023-05-09T13:54:51.210Z,9.47
2023-05-09T13:57:18.908Z,8.70
2023-05-09T13:59:46.644Z,8.67
2023-05-09T14:02:14.251Z,9.50
2023-05-09T14:04:42.262Z,7.83
2023-05-09T14:07:12.343Z,7.97
2023-05-09T14:09:40.310Z,6.60
2023-05-09T14:12:08.328Z,8.87
2023-05-09T14:14:35.817Z,8.47
2023-05-09T14:17:03.569Z,8.30
2023-05-09T14:19:31.198Z,7.70
2023-05-09T14:21:58.742Z,7.30
2023-05-09T14:24:26.257Z,7.70
2023-05-09T14:26:53.777Z,7.10
2023-05-09T14:29:21.616Z,10.00
2023-05-09T14:31:49.419Z,7.47
2023-05-09T14:34:17.283Z,7.43
2023-05-09T14:36:44.982Z,7.57
2023-05-09T14:39:12.729Z,7.00
2023-05-09T14:41:40.290Z,9.30
2023-05-09T14:44:07.760Z,7.93
2023-05-09T14:46:36.984Z,8.33
2023-05-09T14:49:04.533Z,8.27
2023-05-09T14:51:33.428Z,7.80
2023-05-09T14:54:02.489Z,7.87
2023-05-09T14:56:31.542Z,6.47
2023-05-09T14:58:59.193Z,6.33
2023-05-09T15:01:26.774Z,5.43
2023-05-09T15:03:54.453Z,5.83
2023-05-09T15:06:22.154Z,4.93
2023-05-09T15:08:49.778Z,6.43
2023-05-09T15:11:17.184Z,5.67
2023-05-09T15:13:44.656Z,6.53
2023-05-09T15:16:12.223Z,6.13
2023-05-09T15:18:43.950Z,5.60
2023-05-09T15:21:11.324Z,5.57
2023-05-09T15:23:39.748Z,4.50
2023-05-09T15:26:09.002Z,5.40
2023-05-09T15:28:36.654Z,4.80
2023-05-09T15:31:04.232Z,5.07
2023-05-09T15:33:32.316Z,4.50
2023-05-09T15:36:03.288Z,4.93
2023-05-09T15:38:30.609Z,4.27
2023-05-09T15:40:57.829Z,6.73
2023-05-09T15:43:25.038Z,5.17
2023-05-09T15:45:52.283Z,6.27
2023-05-09T15:48:19.649Z,6.23
2023-05-09T15:50:46.988Z,5.40
2023-05-09T15:53:16.315Z,5.90
2023-05-09T15:55:44.064Z,5.50
2023-05-09T15:58:11.404Z,7.73
2023-05-09T16:00:39.103Z,5.17
2023-05-09T16:03:06.096Z,5.80
2023-05-09T16:05:33.549Z,6.13
2023-05-09T16:08:00.805Z,5.90
2023-05-09T16:10:28.258Z,6.00
2023-05-09T16:12:55.584Z,5.57
2023-05-09T16:15:23.230Z,6.07
2023-05-09T16:17:50.669Z,5.30
2023-05-09T16:20:18.307Z,5.47
2023-05-09T16:22:45.620Z,5.40
2023-05-09T16:25:12.783Z,5.40
2023-05-09T16:27:40.057Z,6.00
2023-05-09T16:30:07.538Z,5.87
2023-05-09T16:32:34.865Z,6.47
2023-05-09T16:35:02.062Z,5.80
2023-05-09T16:37:29.865Z,7.33
2023-05-09T16:39:57.929Z,9.90
2023-05-09T16:42:25.207Z,5.50
2023-05-09T16:44:52.802Z,6.40
2023-05-09T16:47:20.050Z,6.33
2023-05-09T16:49:47.252Z,6.37
2023-05-09T16:52:15.366Z,5.60
2023-05-09T16:54:42.538Z,6.10
2023-05-09T16:57:09.832Z,5.30
2023-05-09T16:59:37.473Z,4.23
2023-05-09T17:02:06.043Z,6.70
2023-05-09T17:04:33.153Z,5.83
2023-05-09T17:07:01.580Z,4.90
2023-05-09T17:09:28.733Z,5.07
2023-05-09T17:11:56.058Z,4.77
2023-05-09T17:14:23.354Z,5.30
2023-05-09T17:16:51.385Z,5.53
2023-05-09T17:19:20.792Z,6.03
2023-05-09T17:21:47.958Z,5.67
2023-05-09T17:24:15.954Z,5.73
2023-05-09T17:26:43.523Z,5.63
2023-05-09T17:29:10.712Z,6.93
2023-05-09T17:31:38.055Z,5.70
2023-05-09T17:34:05.667Z,5.17
2023-05-09T17:36:33.651Z,5.93
2023-05-09T17:39:01.006Z,5.70
2023-05-09T17:41:27.903Z,6.10
2023-05-09T17:43:57.365Z,6.70
2023-05-09T17:46:24.908Z,5.10
2023-05-09T17:48:52.132Z,6.67
2023-05-09T17:51:19.011Z,5.33
2023-05-09T17:53:46.868Z,6.10
2023-05-09T17:56:14.131Z,5.27
2023-05-09T17:58:41.300Z,5.83
2023-05-09T18:01:08.663Z,6.67
2023-05-09T18:03:36.443Z,6.47
2023-05-09T18:06:04.548Z,6.53
2023-05-09T18:08:31.958Z,6.23
2023-05-09T18:10:59.120Z,6.13
2023-05-09T18:13:26.402Z,7.27
2023-05-09T18:15:55.187Z,6.77
2023-05-09T18:18:22.422Z,6.77
2023-05-09T18:20:49.853Z,6.93
2023-05-09T18:23:17.042Z,6.67
2023-05-09T18:25:44.260Z,6.37
2023-05-09T18:28:11.054Z,6.70
2023-05-09T18:30:39.218Z,9.70
2023-05-09T18:33:07.230Z,8.40
2023-05-09T18:35:34.495Z,8.40
2023-05-09T18:38:01.921Z,8.27
2023-05-09T18:40:29.468Z,8.33
2023-05-09T18:42:56.568Z,8.73
2023-05-09T18:45:23.411Z,7.57
2023-05-09T18:47:50.323Z,7.80
2023-05-09T18:50:18.719Z,8.00
2023-05-09T18:52:46.078Z,9.27
2023-05-09T18:55:14.953Z,8.93
2023-05-09T18:57:41.771Z,7.20
2023-05-09T19:00:09.217Z,9.33
2023-05-09T19:02:36.470Z,9.40
2023-05-09T19:05:07.257Z,9.03
2023-05-09T19:07:34.834Z,9.60
2023-05-09T19:10:03.023Z,8.80
2023-05-09T19:12:30.365Z,9.00
2023-05-09T19:14:57.413Z,8.87
2023-05-09T19:17:24.857Z,7.87
2023-05-09T19:19:52.522Z,8.40
2023-05-09T19:22:19.863Z,7.10
2023-05-09T19:24:47.359Z,8.83
2023-05-09T19:27:14.609Z,8.60
2023-05-09T19:29:41.753Z,8.73
2023-05-09T19:32:09.199Z,7.80
2023-05-09T19:34:36.732Z,9.20
2023-05-09T19:37:04.169Z,9.20
2023-05-09T19:39:31.505Z,9.97
2023-05-09T19:42:00.433Z,10.63
2023-05-09T19:44:27.711Z,10.30
2023-05-09T19:46:57.697Z,9.13
2023-05-09T19:49:25.036Z,10.10
2023-05-09T19:51:52.268Z,9.63
2023-05-09T19:54:19.577Z,11.80
2023-05-09T19:56:46.849Z,11.03
2023-05-09T19:59:14.173Z,10.80
2023-05-09T20:01:40.952Z,11.57
2023-05-09T20:04:08.579Z,11.47
2023-05-09T20:06:36.061Z,12.03
2023-05-09T20:09:03.288Z,11.20
2023-05-09T20:11:30.261Z,10.80
2023-05-09T20:13:57.747Z,11.93
2023-05-09T20:16:25.144Z,9.93
2023-05-09T20:18:52.564Z,11.07
2023-05-09T20:21:19.579Z,10.10
2023-05-09T20:23:46.396Z,11.37
2023-05-09T20:26:13.414Z,11.90
2023-05-09T20:28:41.433Z,9.43
2023-05-09T22:35:09.515Z,1.77
2023-05-09T23:43:07.911Z,3.77
